»·PEaware :: PAA1180 KMFR-KWMC

PAA1180 :: KMFR-KWMC

FLIGHT INFORMATION

Flight Status: Arrived
Operator:
PanAm
More flights by this operator :: More flights under this callsign
Pilot: Dominic B. (18944)
Aircraft: BOEING 747-200
(B742)
More flights by this aircraft type
Origin: KMFR Rogue Valley Intl-Medford
United States
Destination: KWMC Winnemucca Mun
United States
More flights between these airports :: More routes between these airports
Route: BRUTE7 TALEM FJS AHC INA
File this flight plan on PilotEdge
Remarks:
Altitude:
(Current/Filed)
31,000ft
Speed:
(Current/Filed)
450kts
Departed: 14-Sep-22 04:17 PM
Arrived: 14-Sep-22 05:13 PM
Distance/Time
Traveled:
244nm/0:55
Distance/Time
To Go:
Arrived

Flight Plot

Page will automatically refresh every two minutes.

Flight plan parsing failed; only flown route is shown


Map Options




Map Legend


Flown Route
Filed Route
Departure Airport
Arrival Airport
Navaid (VOR, NDB)
Fix

Horizontal Profiles

Position Reports

Time Latitude Longitude Heading Altitude Ground
Speed
14-Sep-22 15:11 42.368843 -122.873256 248 1325ft 0kts
14-Sep-22 15:12 42.368843 -122.873256 248 1325ft 0kts
14-Sep-22 15:13 42.368843 -122.873256 248 1325ft 0kts
14-Sep-22 15:14 42.368843 -122.873256 248 1325ft 0kts
14-Sep-22 15:15 42.368843 -122.873256 248 1325ft 0kts
14-Sep-22 15:16 42.368843 -122.873256 248 1325ft 0kts
14-Sep-22 15:17 42.368843 -122.873256 248 1325ft 0kts
14-Sep-22 15:18 42.368843 -122.873256 248 1325ft 0kts
14-Sep-22 15:19 42.368843 -122.873256 248 1325ft 0kts
14-Sep-22 15:20 42.368843 -122.873256 248 1325ft 0kts
14-Sep-22 15:21 42.368843 -122.873256 248 1325ft 0kts
14-Sep-22 15:22 42.368843 -122.873256 248 1325ft 0kts
14-Sep-22 15:23 42.368843 -122.873256 248 1325ft 0kts
14-Sep-22 15:24 42.368843 -122.873256 248 1325ft 0kts
14-Sep-22 15:25 42.368843 -122.873256 248 1325ft 0kts
14-Sep-22 15:26 42.368843 -122.873256 248 1325ft 0kts
14-Sep-22 15:27 42.368843 -122.873256 248 1325ft 0kts
14-Sep-22 15:28 42.368843 -122.873256 248 1325ft 0kts
14-Sep-22 15:29 42.368843 -122.873256 248 1325ft 0kts
14-Sep-22 15:30 42.368843 -122.873256 248 1325ft 0kts
14-Sep-22 15:31 42.368843 -122.873256 248 1325ft 0kts
14-Sep-22 15:32 42.368843 -122.873256 248 1325ft 0kts
14-Sep-22 15:33 42.368843 -122.873256 248 1325ft 0kts
14-Sep-22 15:34 42.368843 -122.873256 248 1325ft 0kts
14-Sep-22 15:35 42.368843 -122.873256 248 1325ft 0kts
14-Sep-22 15:36 42.368843 -122.873256 248 1325ft 0kts
14-Sep-22 15:37 42.368843 -122.873256 248 1325ft 0kts
14-Sep-22 15:38 42.368843 -122.873256 248 1325ft 0kts
14-Sep-22 15:39 42.368843 -122.873256 248 1325ft 0kts
14-Sep-22 15:40 42.368843 -122.873256 248 1325ft 0kts
14-Sep-22 15:42 42.368843 -122.873256 248 1325ft 0kts
14-Sep-22 15:43 42.368843 -122.873256 248 1325ft 0kts
14-Sep-22 15:44 42.368843 -122.873256 248 1325ft 0kts
14-Sep-22 15:45 42.368843 -122.873256 248 1325ft 0kts
14-Sep-22 15:46 42.368843 -122.873256 248 1325ft 0kts
14-Sep-22 15:47 42.368843 -122.873256 248 1325ft 0kts
14-Sep-22 15:48 42.368843 -122.873256 248 1325ft 0kts
14-Sep-22 15:49 42.368843 -122.873256 248 1325ft 0kts
14-Sep-22 15:50 42.368843 -122.873256 248 1325ft 0kts
14-Sep-22 15:51 42.368843 -122.873256 248 1325ft 0kts
14-Sep-22 15:52 42.368843 -122.873256 248 1325ft 0kts
14-Sep-22 15:53 42.368843 -122.873256 248 1325ft 0kts
14-Sep-22 15:54 42.368843 -122.873256 248 1325ft 0kts
14-Sep-22 15:55 42.368843 -122.873256 248 1325ft 0kts
14-Sep-22 15:56 42.368843 -122.873256 248 1325ft 0kts
14-Sep-22 15:57 42.368843 -122.873256 248 1324ft 0kts
14-Sep-22 15:58 42.368843 -122.873256 248 1324ft 0kts
14-Sep-22 15:59 42.368843 -122.873256 248 1324ft 0kts
14-Sep-22 16:00 42.368843 -122.873256 248 1324ft 0kts
14-Sep-22 16:01 42.368843 -122.873256 248 1324ft 0kts
14-Sep-22 16:02 42.368843 -122.873256 248 1324ft 0kts
14-Sep-22 16:03 42.368866 -122.873179 245 1325ft 2kts
14-Sep-22 16:04 42.369000 -122.872408 281 1325ft 2kts
14-Sep-22 16:04 42.368732 -122.871854 325 1326ft 2kts
14-Sep-22 16:06 42.368599 -122.871749 336 1326ft 0kts
14-Sep-22 16:07 42.368599 -122.871749 336 1326ft 0kts
14-Sep-22 16:08 42.368786 -122.872389 283 1325ft 11kts
14-Sep-22 16:09 42.369070 -122.873078 335 1324ft 2kts
14-Sep-22 16:09 42.369581 -122.873003 13 1324ft 0kts
14-Sep-22 16:11 42.374760 -122.874798 339 1318ft 22kts
14-Sep-22 16:12 42.381484 -122.878274 338 1311ft 28kts
14-Sep-22 16:13 42.385514 -122.880323 28 1306ft 0kts
14-Sep-22 16:13 42.385514 -122.880323 28 1306ft 0kts
14-Sep-22 16:14 42.385514 -122.880323 28 1306ft 0kts
14-Sep-22 16:15 42.385980 -122.879329 114 1306ft 2kts
14-Sep-22 16:17 42.362613 -122.866508 161 1565ft 197kts
14-Sep-22 16:17 42.319108 -122.869187 234 3498ft 231kts
14-Sep-22 16:18 42.338725 -122.942739 345 5849ft 259kts
14-Sep-22 16:19 42.383250 -122.883628 103 8170ft 268kts
14-Sep-22 16:20 42.389344 -122.780868 78 9571ft 276kts
14-Sep-22 16:21 42.388985 -122.675723 111 11672ft 293kts
14-Sep-22 16:22 42.360089 -122.568321 113 14809ft 291kts
14-Sep-22 16:23 42.290780 -122.562312 229 16021ft 326kts
14-Sep-22 16:24 42.249324 -122.664598 238 19591ft 287kts
14-Sep-22 16:25 42.242144 -122.769268 276 21275ft 298kts
14-Sep-22 16:26 42.233971 -122.878187 250 22909ft 298kts
14-Sep-22 16:27 42.166817 -122.909125 156 24115ft 309kts
14-Sep-22 16:28 42.084152 -122.859004 164 24760ft 348kts
14-Sep-22 16:29 41.981818 -122.842842 178 25252ft 398kts
14-Sep-22 16:30 41.865302 -122.834032 178 26754ft 430kts
14-Sep-22 16:31 41.744871 -122.825700 179 28952ft 442kts
14-Sep-22 16:32 41.620368 -122.817481 179 30631ft 454kts
14-Sep-22 16:33 41.491250 -122.805956 167 31016ft 490kts
14-Sep-22 16:34 41.400837 -122.673666 108 31035ft 513kts
14-Sep-22 16:35 41.371962 -122.488108 99 30974ft 517kts
14-Sep-22 16:36 41.355179 -122.297893 99 30978ft 516kts
14-Sep-22 16:37 41.339059 -122.108393 99 30990ft 516kts
14-Sep-22 16:38 41.322806 -121.917079 98 30993ft 528kts
14-Sep-22 16:39 41.306335 -121.723493 98 30986ft 526kts
14-Sep-22 16:40 41.289777 -121.530068 98 30986ft 527kts
14-Sep-22 16:41 41.273052 -121.336132 99 30989ft 528kts
14-Sep-22 16:42 41.256150 -121.141726 98 30995ft 534kts
14-Sep-22 16:43 41.238969 -120.945375 98 31000ft 534kts
14-Sep-22 16:44 41.221949 -120.750163 98 30998ft 534kts
14-Sep-22 16:45 41.204909 -120.553977 98 30998ft 534kts
14-Sep-22 16:46 41.187911 -120.359032 98 31000ft 533kts
14-Sep-22 16:47 41.170809 -120.163065 98 30999ft 532kts
14-Sep-22 16:48 41.153832 -119.968844 98 31089ft 533kts
14-Sep-22 16:49 41.136397 -119.773979 98 31068ft 530kts
14-Sep-22 16:50 41.119037 -119.580014 98 31070ft 531kts
14-Sep-22 16:51 41.101687 -119.385477 98 30660ft 533kts
14-Sep-22 16:52 41.084974 -119.196799 98 29198ft 498kts
14-Sep-22 16:53 41.068648 -119.011301 98 27752ft 507kts
14-Sep-22 16:54 41.056661 -118.827161 96 26297ft 496kts
14-Sep-22 16:55 41.038807 -118.648487 104 24840ft 476kts
14-Sep-22 16:56 41.011678 -118.485422 104 23387ft 430kts
14-Sep-22 16:57 40.987518 -118.337945 105 21897ft 403kts
14-Sep-22 16:58 40.963656 -118.196414 105 19878ft 385kts
14-Sep-22 16:59 40.939381 -118.062922 106 17417ft 355kts
14-Sep-22 17:00 40.918589 -117.944368 104 14973ft 314kts
14-Sep-22 17:01 40.900297 -117.837194 103 12748ft 293kts
14-Sep-22 17:02 40.934559 -117.750146 19 11567ft 289kts
14-Sep-22 17:03 40.999849 -117.777765 301 10299ft 235kts
14-Sep-22 17:04 41.027145 -117.847544 294 9075ft 206kts
14-Sep-22 17:05 41.053761 -117.914202 314 8398ft 207kts
14-Sep-22 17:06 41.097702 -117.900371 82 8389ft 187kts
14-Sep-22 17:07 41.067202 -117.861554 177 7659ft 171kts
14-Sep-22 17:08 41.020836 -117.850661 160 6691ft 173kts
14-Sep-22 17:09 40.976718 -117.838663 168 5989ft 159kts
14-Sep-22 17:10 40.935817 -117.826439 168 5147ft 151kts
14-Sep-22 17:11 40.897828 -117.809929 158 4310ft 121kts
14-Sep-22 17:12 40.888317 -117.804848 91 4312ft 7kts
14-Sep-22 17:13 40.890936 -117.805022 336 4311ft 24kts
14-Sep-22 17:14 40.899094 -117.806214 0 4310ft 37kts
14-Sep-22 17:15 40.903913 -117.806025 1 4309ft 0kts
14-Sep-22 17:16 40.903913 -117.806025 1 4309ft 0kts

Navigation Log

Ident Type
Flight plan parsing failed, navigation log unavailable